sensor_id;sensor_type;location;lat;lon;timestamp;temperature;humidity
23233;DHT22;11785;49.500;8.288;2023-05-07T00:00:33;14.80;78.10
23233;DHT22;11785;49.500;8.288;2023-05-07T00:02:59;14.80;78.90
23233;DHT22;11785;49.500;8.288;2023-05-07T00:05:25;14.70;79.70
23233;DHT22;11785;49.500;8.288;2023-05-07T00:07:51;14.70;79.90
23233;DHT22;11785;49.500;8.288;2023-05-07T00:10:18;14.70;80.00
23233;DHT22;11785;49.500;8.288;2023-05-07T00:12:43;14.70;80.00
23233;DHT22;11785;49.500;8.288;2023-05-07T00:15:09;14.70;80.10
23233;DHT22;11785;49.500;8.288;2023-05-07T00:17:35;14.60;80.90
23233;DHT22;11785;49.500;8.288;2023-05-07T00:20:02;14.60;80.80
23233;DHT22;11785;49.500;8.288;2023-05-07T00:22:28;14.60;80.80
23233;DHT22;11785;49.500;8.288;2023-05-07T00:24:55;14.60;81.10
23233;DHT22;11785;49.500;8.288;2023-05-07T00:27:21;14.60;81.20
23233;DHT22;11785;49.500;8.288;2023-05-07T00:29:47;14.50;82.00
23233;DHT22;11785;49.500;8.288;2023-05-07T00:32:12;14.40;83.10
23233;DHT22;11785;49.500;8.288;2023-05-07T00:34:38;14.30;84.50
23233;DHT22;11785;49.500;8.288;2023-05-07T00:37:05;14.30;85.30
23233;DHT22;11785;49.500;8.288;2023-05-07T00:39:33;14.20;86.70
23233;DHT22;11785;49.500;8.288;2023-05-07T00:41:58;14.20;87.50
23233;DHT22;11785;49.500;8.288;2023-05-07T00:44:24;14.20;87.90
23233;DHT22;11785;49.500;8.288;2023-05-07T00:46:50;14.20;88.30
23233;DHT22;11785;49.500;8.288;2023-05-07T00:49:16;14.20;88.50
23233;DHT22;11785;49.500;8.288;2023-05-07T00:51:42;14.10;89.70
23233;DHT22;11785;49.500;8.288;2023-05-07T00:54:08;14.10;90.00
23233;DHT22;11785;49.500;8.288;2023-05-07T00:56:34;14.10;90.10
23233;DHT22;11785;49.500;8.288;2023-05-07T00:59:01;14.10;90.20
23233;DHT22;11785;49.500;8.288;2023-05-07T01:01:27;14.10;90.30
23233;DHT22;11785;49.500;8.288;2023-05-07T01:03:53;14.00;90.70
23233;DHT22;11785;49.500;8.288;2023-05-07T01:06:19;13.90;91.10
23233;DHT22;11785;49.500;8.288;2023-05-07T01:08:46;13.90;91.60
23233;DHT22;11785;49.500;8.288;2023-05-07T01:11:13;13.80;92.20
23233;DHT22;11785;49.500;8.288;2023-05-07T01:13:39;13.80;92.50
23233;DHT22;11785;49.500;8.288;2023-05-07T01:16:06;13.80;92.70
23233;DHT22;11785;49.500;8.288;2023-05-07T01:18:32;13.80;92.80
23233;DHT22;11785;49.500;8.288;2023-05-07T01:20:58;13.80;92.80
23233;DHT22;11785;49.500;8.288;2023-05-07T01:23:25;13.80;92.70
23233;DHT22;11785;49.500;8.288;2023-05-07T01:25:53;13.80;92.70
23233;DHT22;11785;49.500;8.288;2023-05-07T01:28:18;13.90;92.30
23233;DHT22;11785;49.500;8.288;2023-05-07T01:30:53;13.90;92.30
23233;DHT22;11785;49.500;8.288;2023-05-07T01:33:20;13.80;92.50
23233;DHT22;11785;49.500;8.288;2023-05-07T01:35:52;13.80;92.70
23233;DHT22;11785;49.500;8.288;2023-05-07T01:38:18;13.70;93.10
23233;DHT22;11785;49.500;8.288;2023-05-07T01:40:45;13.70;93.20
23233;DHT22;11785;49.500;8.288;2023-05-07T01:43:11;13.60;93.80
23233;DHT22;11785;49.500;8.288;2023-05-07T01:45:38;13.50;94.40
23233;DHT22;11785;49.500;8.288;2023-05-07T01:48:04;13.50;94.70
23233;DHT22;11785;49.500;8.288;2023-05-07T01:50:33;13.40;95.20
23233;DHT22;11785;49.500;8.288;2023-05-07T01:53:01;13.40;95.50
23233;DHT22;11785;49.500;8.288;2023-05-07T01:55:27;13.30;96.00
23233;DHT22;11785;49.500;8.288;2023-05-07T01:57:53;13.40;95.80
23233;DHT22;11785;49.500;8.288;2023-05-07T02:00:19;13.40;96.00
23233;DHT22;11785;49.500;8.288;2023-05-07T02:02:44;13.30;96.70
23233;DHT22;11785;49.500;8.288;2023-05-07T02:05:10;13.30;96.50
23233;DHT22;11785;49.500;8.288;2023-05-07T02:07:36;13.30;96.80
23233;DHT22;11785;49.500;8.288;2023-05-07T02:10:01;13.30;96.60
23233;DHT22;11785;49.500;8.288;2023-05-07T02:12:28;13.30;96.70
23233;DHT22;11785;49.500;8.288;2023-05-07T02:14:54;13.20;97.10
23233;DHT22;11785;49.500;8.288;2023-05-07T02:17:19;13.20;97.40
23233;DHT22;11785;49.500;8.288;2023-05-07T02:19:45;13.20;97.80
23233;DHT22;11785;49.500;8.288;2023-05-07T02:22:10;13.20;97.60
23233;DHT22;11785;49.500;8.288;2023-05-07T02:24:36;13.20;97.70
23233;DHT22;11785;49.500;8.288;2023-05-07T02:27:02;13.10;98.20
23233;DHT22;11785;49.500;8.288;2023-05-07T02:29:28;13.10;98.30
23233;DHT22;11785;49.500;8.288;2023-05-07T02:31:54;13.10;98.40
23233;DHT22;11785;49.500;8.288;2023-05-07T02:34:21;13.10;98.50
23233;DHT22;11785;49.500;8.288;2023-05-07T02:36:46;13.10;98.60
23233;DHT22;11785;49.500;8.288;2023-05-07T02:39:13;13.10;98.60
23233;DHT22;11785;49.500;8.288;2023-05-07T02:41:38;13.10;98.70
23233;DHT22;11785;49.500;8.288;2023-05-07T02:44:04;13.10;98.60
23233;DHT22;11785;49.500;8.288;2023-05-07T02:46:30;13.10;98.50
23233;DHT22;11785;49.500;8.288;2023-05-07T02:48:55;13.10;98.50
23233;DHT22;11785;49.500;8.288;2023-05-07T02:51:22;13.00;99.00
23233;DHT22;11785;49.500;8.288;2023-05-07T02:53:48;12.90;99.50
23233;DHT22;11785;49.500;8.288;2023-05-07T02:56:14;13.00;99.30
23233;DHT22;11785;49.500;8.288;2023-05-07T02:58:40;12.90;99.70
23233;DHT22;11785;49.500;8.288;2023-05-07T03:01:06;12.90;99.70
23233;DHT22;11785;49.500;8.288;2023-05-07T03:03:31;12.90;99.90
23233;DHT22;11785;49.500;8.288;2023-05-07T03:05:57;12.80;99.90
23233;DHT22;11785;49.500;8.288;2023-05-07T03:08:22;12.80;99.90
23233;DHT22;11785;49.500;8.288;2023-05-07T03:10:48;12.80;99.90
23233;DHT22;11785;49.500;8.288;2023-05-07T03:13:14;12.70;99.90
23233;DHT22;11785;49.500;8.288;2023-05-07T03:15:40;12.70;99.90
23233;DHT22;11785;49.500;8.288;2023-05-07T03:18:05;12.70;99.90
23233;DHT22;11785;49.500;8.288;2023-05-07T03:20:31;12.70;99.90
23233;DHT22;11785;49.500;8.288;2023-05-07T03:22:56;12.70;99.90
23233;DHT22;11785;49.500;8.288;2023-05-07T03:25:22;12.60;99.90
23233;DHT22;11785;49.500;8.288;2023-05-07T03:27:47;12.60;99.90
23233;DHT22;11785;49.500;8.288;2023-05-07T03:30:13;12.60;99.90
23233;DHT22;11785;49.500;8.288;2023-05-07T03:32:39;12.50;99.90
23233;DHT22;11785;49.500;8.288;2023-05-07T03:35:05;12.50;99.90
23233;DHT22;11785;49.500;8.288;2023-05-07T03:37:30;12.50;99.90
23233;DHT22;11785;49.500;8.288;2023-05-07T03:39:56;12.50;99.90
23233;DHT22;11785;49.500;8.288;2023-05-07T03:42:22;12.50;99.90
23233;DHT22;11785;49.500;8.288;2023-05-07T03:44:47;12.50;99.90
23233;DHT22;11785;49.500;8.288;2023-05-07T03:47:13;12.50;99.90
23233;DHT22;11785;49.500;8.288;2023-05-07T03:49:39;12.50;99.90
23233;DHT22;11785;49.500;8.288;2023-05-07T03:52:05;12.50;99.90
23233;DHT22;11785;49.500;8.288;2023-05-07T03:54:30;12.50;99.90
23233;DHT22;11785;49.500;8.288;2023-05-07T03:56:56;12.50;99.90
23233;DHT22;11785;49.500;8.288;2023-05-07T03:59:22;12.40;99.90
23233;DHT22;11785;49.500;8.288;2023-05-07T04:01:47;12.40;99.90
23233;DHT22;11785;49.500;8.288;2023-05-07T04:04:14;12.30;99.90
23233;DHT22;11785;49.500;8.288;2023-05-07T04:06:40;12.30;99.90
23233;DHT22;11785;49.500;8.288;2023-05-07T04:09:06;12.30;99.90
23233;DHT22;11785;49.500;8.288;2023-05-07T04:11:32;12.30;99.90
23233;DHT22;11785;49.500;8.288;2023-05-07T04:13:57;12.20;99.90
23233;DHT22;11785;49.500;8.288;2023-05-07T04:16:23;12.20;99.90
23233;DHT22;11785;49.500;8.288;2023-05-07T04:18:48;12.20;99.90
23233;DHT22;11785;49.500;8.288;2023-05-07T04:21:19;12.20;99.90
23233;DHT22;11785;49.500;8.288;2023-05-07T04:23:46;12.30;99.90
23233;DHT22;11785;49.500;8.288;2023-05-07T04:26:11;12.30;99.90
23233;DHT22;11785;49.500;8.288;2023-05-07T04:28:38;12.40;99.90
23233;DHT22;11785;49.500;8.288;2023-05-07T04:31:04;12.40;99.90
23233;DHT22;11785;49.500;8.288;2023-05-07T04:33:31;12.50;99.90
23233;DHT22;11785;49.500;8.288;2023-05-07T04:35:56;12.50;99.90
23233;DHT22;11785;49.500;8.288;2023-05-07T04:38:22;12.60;99.90
23233;DHT22;11785;49.500;8.288;2023-05-07T04:40:49;12.70;99.90
23233;DHT22;11785;49.500;8.288;2023-05-07T04:43:14;12.70;99.90
23233;DHT22;11785;49.500;8.288;2023-05-07T04:45:41;12.80;99.90
23233;DHT22;11785;49.500;8.288;2023-05-07T04:48:08;12.90;99.90
23233;DHT22;11785;49.500;8.288;2023-05-07T04:50:34;13.00;99.90
23233;DHT22;11785;49.500;8.288;2023-05-07T04:52:59;13.00;99.70
23233;DHT22;11785;49.500;8.288;2023-05-07T04:55:25;13.10;99.10
23233;DHT22;11785;49.500;8.288;2023-05-07T04:57:52;13.20;98.60
23233;DHT22;11785;49.500;8.288;2023-05-07T05:00:18;13.30;98.30
23233;DHT22;11785;49.500;8.288;2023-05-07T05:02:45;13.40;97.90
23233;DHT22;11785;49.500;8.288;2023-05-07T05:05:10;13.50;97.30
23233;DHT22;11785;49.500;8.288;2023-05-07T05:07:36;13.50;97.00
23233;DHT22;11785;49.500;8.288;2023-05-07T05:10:03;13.70;96.20
23233;DHT22;11785;49.500;8.288;2023-05-07T05:12:29;13.80;95.50
23233;DHT22;11785;49.500;8.288;2023-05-07T05:14:55;13.90;95.00
23233;DHT22;11785;49.500;8.288;2023-05-07T05:17:21;13.90;94.80
23233;DHT22;11785;49.500;8.288;2023-05-07T05:19:46;14.00;94.20
23233;DHT22;11785;49.500;8.288;2023-05-07T05:22:12;14.10;93.90
23233;DHT22;11785;49.500;8.288;2023-05-07T05:24:37;14.20;93.60
23233;DHT22;11785;49.500;8.288;2023-05-07T05:27:03;14.40;92.80
23233;DHT22;11785;49.500;8.288;2023-05-07T05:29:29;14.50;92.40
23233;DHT22;11785;49.500;8.288;2023-05-07T05:31:56;14.60;91.80
23233;DHT22;11785;49.500;8.288;2023-05-07T05:34:22;14.70;91.50
23233;DHT22;11785;49.500;8.288;2023-05-07T05:36:47;14.80;91.10
23233;DHT22;11785;49.500;8.288;2023-05-07T05:39:13;14.80;90.90
23233;DHT22;11785;49.500;8.288;2023-05-07T05:41:39;15.00;89.90
23233;DHT22;11785;49.500;8.288;2023-05-07T05:44:05;15.00;89.50
23233;DHT22;11785;49.500;8.288;2023-05-07T05:46:31;15.10;88.50
23233;DHT22;11785;49.500;8.288;2023-05-07T05:48:56;15.20;87.10
23233;DHT22;11785;49.500;8.288;2023-05-07T05:51:22;15.30;85.70
23233;DHT22;11785;49.500;8.288;2023-05-07T05:53:48;15.40;84.80
23233;DHT22;11785;49.500;8.288;2023-05-07T05:56:14;15.50;83.80
23233;DHT22;11785;49.500;8.288;2023-05-07T05:58:40;15.60;81.90
23233;DHT22;11785;49.500;8.288;2023-05-07T06:01:06;15.80;80.00
23233;DHT22;11785;49.500;8.288;2023-05-07T06:03:32;16.00;78.20
23233;DHT22;11785;49.500;8.288;2023-05-07T06:05:57;16.20;74.90
23233;DHT22;11785;49.500;8.288;2023-05-07T06:08:23;16.20;73.10
23233;DHT22;11785;49.500;8.288;2023-05-07T06:10:49;16.20;72.10
23233;DHT22;11785;49.500;8.288;2023-05-07T06:13:14;16.10;72.50
23233;DHT22;11785;49.500;8.288;2023-05-07T06:16:01;16.20;71.60
23233;DHT22;11785;49.500;8.288;2023-05-07T06:18:26;16.20;71.10
23233;DHT22;11785;49.500;8.288;2023-05-07T06:20:52;16.30;70.00
23233;DHT22;11785;49.500;8.288;2023-05-07T06:23:18;16.40;69.30
23233;DHT22;11785;49.500;8.288;2023-05-07T06:25:50;16.40;68.80
23233;DHT22;11785;49.500;8.288;2023-05-07T06:28:16;16.50;67.90
23233;DHT22;11785;49.500;8.288;2023-05-07T06:30:42;16.60;67.00
23233;DHT22;11785;49.500;8.288;2023-05-07T06:33:10;16.50;65.70
23233;DHT22;11785;49.500;8.288;2023-05-07T06:35:35;16.60;65.60
23233;DHT22;11785;49.500;8.288;2023-05-07T06:38:01;16.70;65.20
23233;DHT22;11785;49.500;8.288;2023-05-07T06:40:27;16.80;63.40
23233;DHT22;11785;49.500;8.288;2023-05-07T06:42:52;17.00;61.30
23233;DHT22;11785;49.500;8.288;2023-05-07T06:45:19;17.20;59.90
23233;DHT22;11785;49.500;8.288;2023-05-07T06:47:45;17.40;59.80
23233;DHT22;11785;49.500;8.288;2023-05-07T06:50:11;17.50;59.80
23233;DHT22;11785;49.500;8.288;2023-05-07T06:52:37;17.40;59.80
23233;DHT22;11785;49.500;8.288;2023-05-07T06:55:02;17.50;59.80
23233;DHT22;11785;49.500;8.288;2023-05-07T06:57:28;17.60;59.80
23233;DHT22;11785;49.500;8.288;2023-05-07T06:59:53;17.80;59.70
23233;DHT22;11785;49.500;8.288;2023-05-07T07:02:19;18.00;59.60
23233;DHT22;11785;49.500;8.288;2023-05-07T07:04:44;18.10;59.60
23233;DHT22;11785;49.500;8.288;2023-05-07T07:07:10;18.10;59.60
23233;DHT22;11785;49.500;8.288;2023-05-07T07:09:36;18.20;59.60
23233;DHT22;11785;49.500;8.288;2023-05-07T07:12:02;18.10;59.50
23233;DHT22;11785;49.500;8.288;2023-05-07T07:14:27;18.20;59.50
23233;DHT22;11785;49.500;8.288;2023-05-07T07:16:53;18.30;59.40
23233;DHT22;11785;49.500;8.288;2023-05-07T07:19:19;18.20;59.40
23233;DHT22;11785;49.500;8.288;2023-05-07T07:21:45;18.30;59.40
23233;DHT22;11785;49.500;8.288;2023-05-07T07:24:12;18.30;59.40
23233;DHT22;11785;49.500;8.288;2023-05-07T07:26:38;18.50;59.40
23233;DHT22;11785;49.500;8.288;2023-05-07T07:29:05;18.70;59.20
23233;DHT22;11785;49.500;8.288;2023-05-07T07:31:30;18.60;59.20
23233;DHT22;11785;49.500;8.288;2023-05-07T07:33:56;18.70;59.20
23233;DHT22;11785;49.500;8.288;2023-05-07T07:36:22;18.80;59.20
23233;DHT22;11785;49.500;8.288;2023-05-07T07:38:47;18.90;59.10
23233;DHT22;11785;49.500;8.288;2023-05-07T07:41:13;18.90;59.10
23233;DHT22;11785;49.500;8.288;2023-05-07T07:43:38;19.10;59.10
23233;DHT22;11785;49.500;8.288;2023-05-07T07:46:04;19.30;59.00
23233;DHT22;11785;49.500;8.288;2023-05-07T07:48:30;19.30;58.90
23233;DHT22;11785;49.500;8.288;2023-05-07T07:50:56;19.40;58.90
23233;DHT22;11785;49.500;8.288;2023-05-07T07:53:21;19.70;58.80
23233;DHT22;11785;49.500;8.288;2023-05-07T07:55:47;19.70;58.80
23233;DHT22;11785;49.500;8.288;2023-05-07T07:58:12;19.70;58.80
23233;DHT22;11785;49.500;8.288;2023-05-07T08:00:38;19.70;58.80
23233;DHT22;11785;49.500;8.288;2023-05-07T08:03:03;19.60;58.80
23233;DHT22;11785;49.500;8.288;2023-05-07T08:05:30;19.60;58.80
23233;DHT22;11785;49.500;8.288;2023-05-07T08:07:55;19.60;58.80
23233;DHT22;11785;49.500;8.288;2023-05-07T08:10:21;19.60;58.80
23233;DHT22;11785;49.500;8.288;2023-05-07T08:12:50;19.60;58.80
23233;DHT22;11785;49.500;8.288;2023-05-07T08:15:16;19.90;58.70
23233;DHT22;11785;49.500;8.288;2023-05-07T08:17:43;19.80;58.70
23233;DHT22;11785;49.500;8.288;2023-05-07T08:20:09;19.90;58.60
23233;DHT22;11785;49.500;8.288;2023-05-07T08:22:35;20.10;58.60
23233;DHT22;11785;49.500;8.288;2023-05-07T08:25:01;20.20;58.50
23233;DHT22;11785;49.500;8.288;2023-05-07T08:27:27;20.30;58.50
23233;DHT22;11785;49.500;8.288;2023-05-07T08:29:53;20.30;58.50
23233;DHT22;11785;49.500;8.288;2023-05-07T08:32:19;20.50;58.40
23233;DHT22;11785;49.500;8.288;2023-05-07T08:34:44;20.50;58.40
23233;DHT22;11785;49.500;8.288;2023-05-07T08:37:10;20.70;58.40
23233;DHT22;11785;49.500;8.288;2023-05-07T08:39:35;20.80;58.30
23233;DHT22;11785;49.500;8.288;2023-05-07T08:42:01;20.90;58.20
23233;DHT22;11785;49.500;8.288;2023-05-07T08:44:33;20.80;58.20
23233;DHT22;11785;49.500;8.288;2023-05-07T08:47:01;21.00;58.20
23233;DHT22;11785;49.500;8.288;2023-05-07T08:49:27;21.20;58.20
23233;DHT22;11785;49.500;8.288;2023-05-07T08:51:53;21.40;58.10
23233;DHT22;11785;49.500;8.288;2023-05-07T08:54:20;21.60;58.00
23233;DHT22;11785;49.500;8.288;2023-05-07T08:56:46;21.80;58.00
23233;DHT22;11785;49.500;8.288;2023-05-07T08:59:11;21.80;57.90
23233;DHT22;11785;49.500;8.288;2023-05-07T09:01:37;21.90;57.90
23233;DHT22;11785;49.500;8.288;2023-05-07T09:04:04;21.80;57.90
23233;DHT22;11785;49.500;8.288;2023-05-07T09:06:31;22.00;57.90
23233;DHT22;11785;49.500;8.288;2023-05-07T09:08:56;22.00;57.80
23233;DHT22;11785;49.500;8.288;2023-05-07T09:11:24;22.20;57.80
23233;DHT22;11785;49.500;8.288;2023-05-07T09:13:54;22.20;57.70
23233;DHT22;11785;49.500;8.288;2023-05-07T09:16:21;22.20;57.70
23233;DHT22;11785;49.500;8.288;2023-05-07T09:18:51;22.60;57.50
23233;DHT22;11785;49.500;8.288;2023-05-07T09:21:18;22.70;57.50
23233;DHT22;11785;49.500;8.288;2023-05-07T09:23:44;22.80;57.40
23233;DHT22;11785;49.500;8.288;2023-05-07T09:26:10;22.90;57.40
23233;DHT22;11785;49.500;8.288;2023-05-07T09:28:39;23.40;57.30
23233;DHT22;11785;49.500;8.288;2023-05-07T09:31:05;23.60;57.10
23233;DHT22;11785;49.500;8.288;2023-05-07T09:33:31;23.90;57.10
23233;DHT22;11785;49.500;8.288;2023-05-07T09:35:56;23.80;57.00
23233;DHT22;11785;49.500;8.288;2023-05-07T09:38:22;23.40;57.00
23233;DHT22;11785;49.500;8.288;2023-05-07T09:41:10;23.30;57.10
23233;DHT22;11785;49.500;8.288;2023-05-07T09:43:37;23.40;57.10
23233;DHT22;11785;49.500;8.288;2023-05-07T09:46:06;23.50;57.00
23233;DHT22;11785;49.500;8.288;2023-05-07T09:48:37;23.50;57.00
23233;DHT22;11785;49.500;8.288;2023-05-07T09:51:11;23.50;57.00
23233;DHT22;11785;49.500;8.288;2023-05-07T09:53:36;23.90;56.90
23233;DHT22;11785;49.500;8.288;2023-05-07T09:56:03;24.20;56.90
23233;DHT22;11785;49.500;8.288;2023-05-07T09:58:29;24.40;56.80
23233;DHT22;11785;49.500;8.288;2023-05-07T10:00:56;24.70;56.70
23233;DHT22;11785;49.500;8.288;2023-05-07T10:03:24;24.30;56.80
23233;DHT22;11785;49.500;8.288;2023-05-07T10:05:53;24.30;56.80
23233;DHT22;11785;49.500;8.288;2023-05-07T10:08:19;24.40;56.80
23233;DHT22;11785;49.500;8.288;2023-05-07T10:10:46;24.50;56.70
23233;DHT22;11785;49.500;8.288;2023-05-07T10:13:12;24.00;56.80
23233;DHT22;11785;49.500;8.288;2023-05-07T10:15:38;24.10;56.80
23233;DHT22;11785;49.500;8.288;2023-05-07T10:18:06;24.20;56.80
23233;DHT22;11785;49.500;8.288;2023-05-07T10:20:33;24.50;56.70
23233;DHT22;11785;49.500;8.288;2023-05-07T10:23:02;24.90;56.60
23233;DHT22;11785;49.500;8.288;2023-05-07T10:25:30;25.00;51.20
23233;DHT22;11785;49.500;8.288;2023-05-07T10:28:00;25.20;45.50
23233;DHT22;11785;49.500;8.288;2023-05-07T10:30:40;24.50;56.60
23233;DHT22;11785;49.500;8.288;2023-05-07T10:33:10;24.80;56.60
23233;DHT22;11785;49.500;8.288;2023-05-07T10:35:44;25.00;51.20
23233;DHT22;11785;49.500;8.288;2023-05-07T10:38:10;25.40;45.40
23233;DHT22;11785;49.500;8.288;2023-05-07T10:40:36;25.70;45.70
23233;DHT22;11785;49.500;8.288;2023-05-07T10:43:03;25.70;45.70
23233;DHT22;11785;49.500;8.288;2023-05-07T10:45:30;25.70;45.70
23233;DHT22;11785;49.500;8.288;2023-05-07T10:48:16;25.40;45.60
23233;DHT22;11785;49.500;8.288;2023-05-07T10:50:43;25.40;45.60
23233;DHT22;11785;49.500;8.288;2023-05-07T10:58:44;25.00;51.30
23233;DHT22;11785;49.500;8.288;2023-05-07T11:01:10;25.40;45.60
23233;DHT22;11785;49.500;8.288;2023-05-07T11:04:15;25.70;45.80
23233;DHT22;11785;49.500;8.288;2023-05-07T11:17:51;26.00;45.80
23233;DHT22;11785;49.500;8.288;2023-05-07T11:20:17;26.40;45.90
23233;DHT22;11785;49.500;8.288;2023-05-07T11:22:43;26.80;46.10
23233;DHT22;11785;49.500;8.288;2023-05-07T11:25:09;27.10;46.20
23233;DHT22;11785;49.500;8.288;2023-05-07T11:27:37;27.50;46.40
23233;DHT22;11785;49.500;8.288;2023-05-07T11:30:03;27.50;46.40
23233;DHT22;11785;49.500;8.288;2023-05-07T11:32:30;27.20;46.30
23233;DHT22;11785;49.500;8.288;2023-05-07T11:34:57;26.90;46.20
23233;DHT22;11785;49.500;8.288;2023-05-07T11:37:24;26.70;46.20
23233;DHT22;11785;49.500;8.288;2023-05-07T11:39:50;26.80;46.20
23233;DHT22;11785;49.500;8.288;2023-05-07T11:42:38;26.80;46.20
23233;DHT22;11785;49.500;8.288;2023-05-07T11:45:05;27.00;46.30
23233;DHT22;11785;49.500;8.288;2023-05-07T11:47:31;27.10;46.40
23233;DHT22;11785;49.500;8.288;2023-05-07T11:49:57;27.50;46.40
23233;DHT22;11785;49.500;8.288;2023-05-07T11:52:27;27.80;46.50
23233;DHT22;11785;49.500;8.288;2023-05-07T11:54:54;28.20;46.70
23233;DHT22;11785;49.500;8.288;2023-05-07T11:57:21;28.50;46.90
23233;DHT22;11785;49.500;8.288;2023-05-07T11:59:47;29.40;47.10
23233;DHT22;11785;49.500;8.288;2023-05-07T12:02:17;30.00;47.40
23233;DHT22;11785;49.500;8.288;2023-05-07T12:04:43;31.00;47.80
23233;DHT22;11785;49.500;8.288;2023-05-07T12:07:13;31.60;48.00
23233;DHT22;11785;49.500;8.288;2023-05-07T12:09:39;31.10;48.00
23233;DHT22;11785;49.500;8.288;2023-05-07T12:12:05;31.00;47.90
23233;DHT22;11785;49.500;8.288;2023-05-07T12:14:31;31.00;48.00
23233;DHT22;11785;49.500;8.288;2023-05-07T12:17:01;30.50;47.80
23233;DHT22;11785;49.500;8.288;2023-05-07T12:19:29;30.80;47.80
23233;DHT22;11785;49.500;8.288;2023-05-07T12:21:55;31.50;48.10
23233;DHT22;11785;49.500;8.288;2023-05-07T12:24:21;31.40;48.10
23233;DHT22;11785;49.500;8.288;2023-05-07T12:26:48;32.10;48.40
23233;DHT22;11785;49.500;8.288;2023-05-07T12:29:13;32.60;48.60
23233;DHT22;11785;49.500;8.288;2023-05-07T12:31:41;33.10;48.90
23233;DHT22;11785;49.500;8.288;2023-05-07T12:34:07;33.00;48.80
23233;DHT22;11785;49.500;8.288;2023-05-07T12:36:40;31.90;48.50
23233;DHT22;11785;49.500;8.288;2023-05-07T12:39:06;30.80;48.00
23233;DHT22;11785;49.500;8.288;2023-05-07T12:41:51;29.60;47.70
23233;DHT22;11785;49.500;8.288;2023-05-07T12:44:17;28.60;47.30
23233;DHT22;11785;49.500;8.288;2023-05-07T12:46:43;27.50;46.90
23233;DHT22;11785;49.500;8.288;2023-05-07T12:49:09;26.80;46.60
23233;DHT22;11785;49.500;8.288;2023-05-07T12:51:35;26.50;46.50
23233;DHT22;11785;49.500;8.288;2023-05-07T12:54:00;26.20;46.40
23233;DHT22;11785;49.500;8.288;2023-05-07T12:56:26;26.00;46.30
23233;DHT22;11785;49.500;8.288;2023-05-07T12:58:57;25.90;46.20
23233;DHT22;11785;49.500;8.288;2023-05-07T13:01:29;26.00;46.30
23233;DHT22;11785;49.500;8.288;2023-05-07T13:03:55;26.00;46.20
23233;DHT22;11785;49.500;8.288;2023-05-07T13:06:20;25.70;46.20
23233;DHT22;11785;49.500;8.288;2023-05-07T13:08:46;25.30;46.00
23233;DHT22;11785;49.500;8.288;2023-05-07T13:11:12;25.00;51.60
23233;DHT22;11785;49.500;8.288;2023-05-07T13:13:39;24.60;56.30
23233;DHT22;11785;49.500;8.288;2023-05-07T13:16:07;24.50;56.40
23233;DHT22;11785;49.500;8.288;2023-05-07T13:18:33;24.30;56.40
23233;DHT22;11785;49.500;8.288;2023-05-07T13:20:59;24.20;56.50
23233;DHT22;11785;49.500;8.288;2023-05-07T13:23:26;24.00;56.50
23233;DHT22;11785;49.500;8.288;2023-05-07T13:25:51;23.90;56.60
23233;DHT22;11785;49.500;8.288;2023-05-07T13:28:19;23.80;56.60
23233;DHT22;11785;49.500;8.288;2023-05-07T13:30:46;23.60;56.60
23233;DHT22;11785;49.500;8.288;2023-05-07T13:33:11;23.50;56.70
23233;DHT22;11785;49.500;8.288;2023-05-07T13:35:37;23.30;56.70
23233;DHT22;11785;49.500;8.288;2023-05-07T13:38:03;23.20;56.80
23233;DHT22;11785;49.500;8.288;2023-05-07T13:40:29;23.10;56.80
23233;DHT22;11785;49.500;8.288;2023-05-07T13:42:57;23.00;56.80
23233;DHT22;11785;49.500;8.288;2023-05-07T13:45:24;22.90;56.90
23233;DHT22;11785;49.500;8.288;2023-05-07T13:47:51;22.80;56.90
23233;DHT22;11785;49.500;8.288;2023-05-07T13:50:17;22.70;56.90
23233;DHT22;11785;49.500;8.288;2023-05-07T13:52:44;22.70;56.90
23233;DHT22;11785;49.500;8.288;2023-05-07T13:55:18;22.60;57.00
23233;DHT22;11785;49.500;8.288;2023-05-07T13:57:45;22.50;57.00
23233;DHT22;11785;49.500;8.288;2023-05-07T14:00:12;22.50;57.10
23233;DHT22;11785;49.500;8.288;2023-05-07T14:02:37;22.40;57.10
23233;DHT22;11785;49.500;8.288;2023-05-07T14:05:04;22.30;57.10
23233;DHT22;11785;49.500;8.288;2023-05-07T14:07:30;22.20;57.20
23233;DHT22;11785;49.500;8.288;2023-05-07T14:09:56;22.20;57.20
23233;DHT22;11785;49.500;8.288;2023-05-07T14:12:22;22.10;57.20
23233;DHT22;11785;49.500;8.288;2023-05-07T14:14:47;22.10;57.20
23233;DHT22;11785;49.500;8.288;2023-05-07T14:17:16;22.00;57.30
23233;DHT22;11785;49.500;8.288;2023-05-07T14:19:41;22.00;57.30
23233;DHT22;11785;49.500;8.288;2023-05-07T14:22:07;21.90;57.30
23233;DHT22;11785;49.500;8.288;2023-05-07T14:24:32;21.80;57.40
23233;DHT22;11785;49.500;8.288;2023-05-07T14:26:58;21.70;57.40
23233;DHT22;11785;49.500;8.288;2023-05-07T14:29:23;21.70;57.40
23233;DHT22;11785;49.500;8.288;2023-05-07T14:31:49;21.60;57.40
23233;DHT22;11785;49.500;8.288;2023-05-07T14:34:15;21.60;57.40
23233;DHT22;11785;49.500;8.288;2023-05-07T14:36:40;21.50;57.50
23233;DHT22;11785;49.500;8.288;2023-05-07T14:39:06;21.30;57.50
23233;DHT22;11785;49.500;8.288;2023-05-07T14:41:32;21.20;57.70
23233;DHT22;11785;49.500;8.288;2023-05-07T14:43:58;21.10;57.80
23233;DHT22;11785;49.500;8.288;2023-05-07T14:46:24;21.00;57.90
23233;DHT22;11785;49.500;8.288;2023-05-07T14:48:50;20.90;58.00
23233;DHT22;11785;49.500;8.288;2023-05-07T14:51:15;20.80;58.20
23233;DHT22;11785;49.500;8.288;2023-05-07T14:53:41;20.70;58.30
23233;DHT22;11785;49.500;8.288;2023-05-07T14:56:07;20.50;58.50
23233;DHT22;11785;49.500;8.288;2023-05-07T14:58:33;20.40;58.60
23233;DHT22;11785;49.500;8.288;2023-05-07T15:00:59;20.20;58.70
23233;DHT22;11785;49.500;8.288;2023-05-07T15:03:25;20.00;58.80
23233;DHT22;11785;49.500;8.288;2023-05-07T15:05:51;20.10;58.90
23233;DHT22;11785;49.500;8.288;2023-05-07T15:08:17;20.00;59.00
23233;DHT22;11785;49.500;8.288;2023-05-07T15:10:43;20.10;59.10
23233;DHT22;11785;49.500;8.288;2023-05-07T15:13:09;19.90;59.10
23233;DHT22;11785;49.500;8.288;2023-05-07T15:15:36;19.50;59.20
23233;DHT22;11785;49.500;8.288;2023-05-07T15:18:02;19.20;59.40
23233;DHT22;11785;49.500;8.288;2023-05-07T15:20:27;18.90;59.60
23233;DHT22;11785;49.500;8.288;2023-05-07T15:22:53;18.80;59.60
23233;DHT22;11785;49.500;8.288;2023-05-07T15:25:19;18.70;59.80
23233;DHT22;11785;49.500;8.288;2023-05-07T15:27:46;18.60;59.90
23233;DHT22;11785;49.500;8.288;2023-05-07T15:30:12;18.50;61.80
23233;DHT22;11785;49.500;8.288;2023-05-07T15:32:40;18.30;65.10
23233;DHT22;11785;49.500;8.288;2023-05-07T15:35:06;18.10;66.40
23233;DHT22;11785;49.500;8.288;2023-05-07T15:37:32;18.00;67.00
23233;DHT22;11785;49.500;8.288;2023-05-07T15:39:57;17.80;65.90
23233;DHT22;11785;49.500;8.288;2023-05-07T15:42:23;17.60;68.40